sensor_id;sensor_type;location;lat;lon;timestamp;P1;durP1;ratioP1;P2;durP2;ratioP2
4744;SDS011;2386;42.138;24.746;2023-02-28T00:00:45;275.87;;;101.03;;
4744;SDS011;2386;42.138;24.746;2023-02-28T00:03:11;292.47;;;101.50;;
4744;SDS011;2386;42.138;24.746;2023-02-28T00:05:36;299.03;;;105.77;;
4744;SDS011;2386;42.138;24.746;2023-02-28T00:08:01;302.47;;;109.33;;
4744;SDS011;2386;42.138;24.746;2023-02-28T00:10:28;293.77;;;102.97;;
4744;SDS011;2386;42.138;24.746;2023-02-28T00:12:56;299.67;;;107.10;;
4744;SDS011;2386;42.138;24.746;2023-02-28T00:15:26;294.73;;;103.77;;
4744;SDS011;2386;42.138;24.746;2023-02-28T00:17:51;312.40;;;108.47;;
4744;SDS011;2386;42.138;24.746;2023-02-28T00:20:17;295.27;;;107.60;;
4744;SDS011;2386;42.138;24.746;2023-02-28T00:22:44;287.73;;;104.77;;
4744;SDS011;2386;42.138;24.746;2023-02-28T00:25:12;304.93;;;108.90;;
4744;SDS011;2386;42.138;24.746;2023-02-28T00:27:39;317.90;;;111.77;;
4744;SDS011;2386;42.138;24.746;2023-02-28T00:30:05;309.40;;;108.73;;
4744;SDS011;2386;42.138;24.746;2023-02-28T00:32:33;292.20;;;100.53;;
4744;SDS011;2386;42.138;24.746;2023-02-28T00:34:59;302.07;;;108.07;;
4744;SDS011;2386;42.138;24.746;2023-02-28T00:37:25;307.70;;;107.90;;
4744;SDS011;2386;42.138;24.746;2023-02-28T00:39:50;303.67;;;109.67;;
4744;SDS011;2386;42.138;24.746;2023-02-28T00:42:15;302.47;;;108.30;;
4744;SDS011;2386;42.138;24.746;2023-02-28T00:44:41;289.87;;;102.83;;
4744;SDS011;2386;42.138;24.746;2023-02-28T00:47:06;312.40;;;106.30;;
4744;SDS011;2386;42.138;24.746;2023-02-28T00:49:32;300.10;;;105.30;;
4744;SDS011;2386;42.138;24.746;2023-02-28T00:51:57;299.80;;;107.17;;
4744;SDS011;2386;42.138;24.746;2023-02-28T00:54:23;294.87;;;104.40;;
4744;SDS011;2386;42.138;24.746;2023-02-28T00:56:50;310.67;;;110.00;;
4744;SDS011;2386;42.138;24.746;2023-02-28T00:59:16;307.03;;;109.17;;
4744;SDS011;2386;42.138;24.746;2023-02-28T01:01:42;306.80;;;109.73;;
4744;SDS011;2386;42.138;24.746;2023-02-28T01:04:09;301.90;;;106.77;;
4744;SDS011;2386;42.138;24.746;2023-02-28T01:06:34;309.83;;;105.00;;
4744;SDS011;2386;42.138;24.746;2023-02-28T01:09:00;291.93;;;104.63;;
4744;SDS011;2386;42.138;24.746;2023-02-28T01:11:26;307.87;;;110.93;;
4744;SDS011;2386;42.138;24.746;2023-02-28T01:13:52;293.50;;;109.13;;
4744;SDS011;2386;42.138;24.746;2023-02-28T01:16:17;289.53;;;108.57;;
4744;SDS011;2386;42.138;24.746;2023-02-28T01:18:43;284.53;;;101.77;;
4744;SDS011;2386;42.138;24.746;2023-02-28T01:21:10;285.97;;;106.90;;
4744;SDS011;2386;42.138;24.746;2023-02-28T01:23:37;293.63;;;106.77;;
4744;SDS011;2386;42.138;24.746;2023-02-28T01:26:07;292.47;;;105.00;;
4744;SDS011;2386;42.138;24.746;2023-02-28T01:28:35;284.13;;;108.20;;
4744;SDS011;2386;42.138;24.746;2023-02-28T01:31:00;291.47;;;108.07;;
4744;SDS011;2386;42.138;24.746;2023-02-28T01:33:26;284.37;;;107.20;;
4744;SDS011;2386;42.138;24.746;2023-02-28T01:36:02;282.83;;;104.17;;
4744;SDS011;2386;42.138;24.746;2023-02-28T01:38:30;292.53;;;105.50;;
4744;SDS011;2386;42.138;24.746;2023-02-28T01:40:56;279.33;;;107.37;;
4744;SDS011;2386;42.138;24.746;2023-02-28T01:43:29;287.43;;;109.83;;
4744;SDS011;2386;42.138;24.746;2023-02-28T01:45:57;289.03;;;108.47;;
4744;SDS011;2386;42.138;24.746;2023-02-28T01:48:33;261.83;;;104.23;;
4744;SDS011;2386;42.138;24.746;2023-02-28T01:51:05;284.93;;;107.17;;
4744;SDS011;2386;42.138;24.746;2023-02-28T01:53:37;279.33;;;101.37;;
4744;SDS011;2386;42.138;24.746;2023-02-28T01:56:08;288.87;;;108.47;;
4744;SDS011;2386;42.138;24.746;2023-02-28T01:58:37;277.70;;;101.93;;
4744;SDS011;2386;42.138;24.746;2023-02-28T02:01:03;298.13;;;110.17;;
4744;SDS011;2386;42.138;24.746;2023-02-28T02:03:29;273.67;;;103.97;;
4744;SDS011;2386;42.138;24.746;2023-02-28T02:05:55;281.77;;;109.83;;
4744;SDS011;2386;42.138;24.746;2023-02-28T02:08:25;282.50;;;109.80;;
4744;SDS011;2386;42.138;24.746;2023-02-28T02:10:56;291.63;;;110.37;;
4744;SDS011;2386;42.138;24.746;2023-02-28T02:13:27;277.63;;;107.10;;
4744;SDS011;2386;42.138;24.746;2023-02-28T02:29:17;299.50;;;106.83;;
4744;SDS011;2386;42.138;24.746;2023-02-28T02:35:08;300.97;;;106.77;;
4744;SDS011;2386;42.138;24.746;2023-02-28T02:37:52;307.03;;;107.63;;
4744;SDS011;2386;42.138;24.746;2023-02-28T02:40:38;288.73;;;101.87;;
4744;SDS011;2386;42.138;24.746;2023-02-28T02:43:14;295.53;;;105.87;;
4744;SDS011;2386;42.138;24.746;2023-02-28T02:45:55;303.07;;;105.93;;
4744;SDS011;2386;42.138;24.746;2023-02-28T02:48:29;294.60;;;102.93;;
4744;SDS011;2386;42.138;24.746;2023-02-28T02:50:59;293.57;;;100.47;;
4744;SDS011;2386;42.138;24.746;2023-02-28T02:53:30;281.67;;;99.07;;
4744;SDS011;2386;42.138;24.746;2023-02-28T02:56:00;293.37;;;101.37;;
4744;SDS011;2386;42.138;24.746;2023-02-28T02:58:31;280.07;;;97.83;;
4744;SDS011;2386;42.138;24.746;2023-02-28T03:01:01;290.53;;;101.50;;
4744;SDS011;2386;42.138;24.746;2023-02-28T03:03:29;295.53;;;104.20;;
4744;SDS011;2386;42.138;24.746;2023-02-28T03:05:57;302.33;;;102.23;;
4744;SDS011;2386;42.138;24.746;2023-02-28T03:08:25;293.63;;;103.23;;
4744;SDS011;2386;42.138;24.746;2023-02-28T03:10:52;293.63;;;100.63;;
4744;SDS011;2386;42.138;24.746;2023-02-28T03:16:35;271.17;;;98.37;;
4744;SDS011;2386;42.138;24.746;2023-02-28T03:19:26;272.37;;;97.77;;
4744;SDS011;2386;42.138;24.746;2023-02-28T03:27:21;291.13;;;100.27;;
4744;SDS011;2386;42.138;24.746;2023-02-28T03:32:28;282.27;;;103.00;;
4744;SDS011;2386;42.138;24.746;2023-02-28T03:35:13;289.37;;;100.73;;
4744;SDS011;2386;42.138;24.746;2023-02-28T03:37:47;275.40;;;101.60;;
4744;SDS011;2386;42.138;24.746;2023-02-28T03:40:19;274.20;;;98.23;;
4744;SDS011;2386;42.138;24.746;2023-02-28T03:42:48;287.43;;;104.20;;
4744;SDS011;2386;42.138;24.746;2023-02-28T03:45:20;287.00;;;102.17;;
4744;SDS011;2386;42.138;24.746;2023-02-28T03:47:55;292.33;;;102.57;;
4744;SDS011;2386;42.138;24.746;2023-02-28T03:55:30;301.20;;;102.70;;
4744;SDS011;2386;42.138;24.746;2023-02-28T03:58:04;292.10;;;103.03;;
4744;SDS011;2386;42.138;24.746;2023-02-28T04:00:31;297.87;;;104.43;;
4744;SDS011;2386;42.138;24.746;2023-02-28T04:03:02;294.53;;;106.27;;
4744;SDS011;2386;42.138;24.746;2023-02-28T04:05:29;284.50;;;103.27;;
4744;SDS011;2386;42.138;24.746;2023-02-28T04:08:03;270.47;;;100.70;;
4744;SDS011;2386;42.138;24.746;2023-02-28T04:10:32;267.23;;;97.17;;
4744;SDS011;2386;42.138;24.746;2023-02-28T04:12:58;278.23;;;97.23;;
4744;SDS011;2386;42.138;24.746;2023-02-28T04:15:23;280.83;;;103.80;;
4744;SDS011;2386;42.138;24.746;2023-02-28T04:17:49;274.43;;;102.07;;
4744;SDS011;2386;42.138;24.746;2023-02-28T04:20:15;284.73;;;101.33;;
4744;SDS011;2386;42.138;24.746;2023-02-28T04:22:40;292.97;;;99.80;;
4744;SDS011;2386;42.138;24.746;2023-02-28T04:25:06;274.37;;;92.73;;
4744;SDS011;2386;42.138;24.746;2023-02-28T04:27:32;266.70;;;93.17;;
4744;SDS011;2386;42.138;24.746;2023-02-28T04:29:57;278.63;;;97.40;;
4744;SDS011;2386;42.138;24.746;2023-02-28T04:32:23;270.37;;;96.20;;
4744;SDS011;2386;42.138;24.746;2023-02-28T04:34:48;273.60;;;92.00;;
4744;SDS011;2386;42.138;24.746;2023-02-28T04:37:13;264.37;;;96.17;;
4744;SDS011;2386;42.138;24.746;2023-02-28T04:39:39;267.60;;;96.83;;
4744;SDS011;2386;42.138;24.746;2023-02-28T04:42:05;271.50;;;99.03;;
4744;SDS011;2386;42.138;24.746;2023-02-28T04:44:30;262.20;;;93.20;;
4744;SDS011;2386;42.138;24.746;2023-02-28T04:46:56;275.13;;;98.97;;
4744;SDS011;2386;42.138;24.746;2023-02-28T04:49:21;281.10;;;98.07;;
4744;SDS011;2386;42.138;24.746;2023-02-28T04:51:47;271.33;;;96.17;;
4744;SDS011;2386;42.138;24.746;2023-02-28T04:54:14;276.70;;;96.87;;
4744;SDS011;2386;42.138;24.746;2023-02-28T04:56:41;281.10;;;100.90;;
4744;SDS011;2386;42.138;24.746;2023-02-28T04:59:06;271.10;;;101.83;;
4744;SDS011;2386;42.138;24.746;2023-02-28T05:01:32;262.53;;;93.27;;
4744;SDS011;2386;42.138;24.746;2023-02-28T05:03:59;291.23;;;98.83;;
4744;SDS011;2386;42.138;24.746;2023-02-28T05:06:27;282.67;;;97.87;;
4744;SDS011;2386;42.138;24.746;2023-02-28T05:08:54;277.87;;;100.27;;
4744;SDS011;2386;42.138;24.746;2023-02-28T05:11:20;257.83;;;96.70;;
4744;SDS011;2386;42.138;24.746;2023-02-28T05:14:00;262.80;;;96.87;;
4744;SDS011;2386;42.138;24.746;2023-02-28T05:16:38;255.07;;;94.17;;
4744;SDS011;2386;42.138;24.746;2023-02-28T05:19:04;238.97;;;86.03;;
4744;SDS011;2386;42.138;24.746;2023-02-28T05:21:31;278.07;;;102.00;;
4744;SDS011;2386;42.138;24.746;2023-02-28T05:23:59;270.17;;;99.17;;
4744;SDS011;2386;42.138;24.746;2023-02-28T05:26:26;232.97;;;85.23;;
4744;SDS011;2386;42.138;24.746;2023-02-28T05:28:52;253.27;;;90.93;;
4744;SDS011;2386;42.138;24.746;2023-02-28T05:31:18;254.10;;;95.23;;
4744;SDS011;2386;42.138;24.746;2023-02-28T05:33:43;249.23;;;90.03;;
4744;SDS011;2386;42.138;24.746;2023-02-28T05:36:09;260.07;;;95.03;;
4744;SDS011;2386;42.138;24.746;2023-02-28T05:38:34;242.20;;;90.07;;
4744;SDS011;2386;42.138;24.746;2023-02-28T05:41:00;245.53;;;91.37;;
4744;SDS011;2386;42.138;24.746;2023-02-28T05:43:29;262.47;;;93.77;;
4744;SDS011;2386;42.138;24.746;2023-02-28T05:45:54;258.07;;;96.10;;
4744;SDS011;2386;42.138;24.746;2023-02-28T05:48:20;253.10;;;94.03;;
4744;SDS011;2386;42.138;24.746;2023-02-28T05:50:45;263.90;;;98.60;;
4744;SDS011;2386;42.138;24.746;2023-02-28T05:53:11;257.33;;;94.97;;
4744;SDS011;2386;42.138;24.746;2023-02-28T05:55:36;276.03;;;99.17;;
4744;SDS011;2386;42.138;24.746;2023-02-28T05:58:02;279.73;;;104.17;;
4744;SDS011;2386;42.138;24.746;2023-02-28T06:00:28;287.83;;;108.43;;
4744;SDS011;2386;42.138;24.746;2023-02-28T06:02:54;261.43;;;97.47;;
4744;SDS011;2386;42.138;24.746;2023-02-28T06:05:22;270.33;;;99.00;;
4744;SDS011;2386;42.138;24.746;2023-02-28T06:07:48;258.87;;;99.20;;
4744;SDS011;2386;42.138;24.746;2023-02-28T06:10:14;276.03;;;102.17;;
4744;SDS011;2386;42.138;24.746;2023-02-28T06:12:39;248.33;;;95.97;;
4744;SDS011;2386;42.138;24.746;2023-02-28T06:15:06;263.83;;;98.37;;
4744;SDS011;2386;42.138;24.746;2023-02-28T06:17:36;294.80;;;100.10;;
4744;SDS011;2386;42.138;24.746;2023-02-28T06:20:01;272.13;;;100.47;;
4744;SDS011;2386;42.138;24.746;2023-02-28T06:22:27;260.37;;;98.47;;
4744;SDS011;2386;42.138;24.746;2023-02-28T06:24:53;272.07;;;100.53;;
4744;SDS011;2386;42.138;24.746;2023-02-28T06:27:19;280.27;;;107.07;;
4744;SDS011;2386;42.138;24.746;2023-02-28T06:29:45;275.53;;;107.37;;
4744;SDS011;2386;42.138;24.746;2023-02-28T06:32:11;260.13;;;100.27;;
4744;SDS011;2386;42.138;24.746;2023-02-28T06:34:36;265.60;;;103.23;;
4744;SDS011;2386;42.138;24.746;2023-02-28T06:37:01;265.47;;;104.87;;
4744;SDS011;2386;42.138;24.746;2023-02-28T06:39:28;246.93;;;95.40;;
4744;SDS011;2386;42.138;24.746;2023-02-28T06:41:54;273.50;;;100.33;;
4744;SDS011;2386;42.138;24.746;2023-02-28T06:44:20;247.43;;;94.90;;
4744;SDS011;2386;42.138;24.746;2023-02-28T06:46:46;253.97;;;95.93;;
4744;SDS011;2386;42.138;24.746;2023-02-28T06:49:11;257.40;;;96.57;;
4744;SDS011;2386;42.138;24.746;2023-02-28T06:51:38;258.63;;;98.50;;
4744;SDS011;2386;42.138;24.746;2023-02-28T06:54:07;278.13;;;103.57;;
4744;SDS011;2386;42.138;24.746;2023-02-28T06:56:35;281.23;;;105.57;;
4744;SDS011;2386;42.138;24.746;2023-02-28T06:59:02;261.43;;;101.27;;
4744;SDS011;2386;42.138;24.746;2023-02-28T07:01:28;266.97;;;103.47;;
4744;SDS011;2386;42.138;24.746;2023-02-28T07:03:54;256.07;;;98.73;;
4744;SDS011;2386;42.138;24.746;2023-02-28T07:06:22;254.87;;;98.47;;
4744;SDS011;2386;42.138;24.746;2023-02-28T07:08:49;256.93;;;99.57;;
4744;SDS011;2386;42.138;24.746;2023-02-28T07:11:15;274.50;;;102.17;;
4744;SDS011;2386;42.138;24.746;2023-02-28T07:13:41;276.33;;;101.33;;
4744;SDS011;2386;42.138;24.746;2023-02-28T07:16:07;243.03;;;98.23;;
4744;SDS011;2386;42.138;24.746;2023-02-28T07:18:35;267.67;;;107.23;;
4744;SDS011;2386;42.138;24.746;2023-02-28T07:21:02;258.60;;;102.07;;
4744;SDS011;2386;42.138;24.746;2023-02-28T07:23:29;264.20;;;103.70;;
4744;SDS011;2386;42.138;24.746;2023-02-28T07:25:54;250.40;;;98.33;;
4744;SDS011;2386;42.138;24.746;2023-02-28T07:28:20;258.40;;;102.73;;
4744;SDS011;2386;42.138;24.746;2023-02-28T07:30:45;233.77;;;95.37;;
4744;SDS011;2386;42.138;24.746;2023-02-28T07:33:11;244.37;;;99.67;;
4744;SDS011;2386;42.138;24.746;2023-02-28T07:35:36;246.37;;;98.43;;
4744;SDS011;2386;42.138;24.746;2023-02-28T07:38:02;258.73;;;100.23;;
4744;SDS011;2386;42.138;24.746;2023-02-28T07:40:28;241.77;;;96.97;;
4744;SDS011;2386;42.138;24.746;2023-02-28T07:42:54;255.87;;;100.57;;
4744;SDS011;2386;42.138;24.746;2023-02-28T07:45:19;256.70;;;103.57;;
4744;SDS011;2386;42.138;24.746;2023-02-28T07:47:45;242.10;;;101.43;;
4744;SDS011;2386;42.138;24.746;2023-02-28T07:50:12;260.57;;;105.70;;
4744;SDS011;2386;42.138;24.746;2023-02-28T07:52:39;260.60;;;105.90;;
4744;SDS011;2386;42.138;24.746;2023-02-28T07:55:06;268.93;;;107.13;;
4744;SDS011;2386;42.138;24.746;2023-02-28T07:57:32;314.50;;;130.67;;
4744;SDS011;2386;42.138;24.746;2023-02-28T07:59:58;244.80;;;100.60;;
4744;SDS011;2386;42.138;24.746;2023-02-28T08:02:23;262.33;;;95.70;;
4744;SDS011;2386;42.138;24.746;2023-02-28T08:04:49;277.53;;;105.17;;
4744;SDS011;2386;42.138;24.746;2023-02-28T08:07:15;250.30;;;97.43;;
4744;SDS011;2386;42.138;24.746;2023-02-28T08:09:42;272.97;;;99.67;;
4744;SDS011;2386;42.138;24.746;2023-02-28T08:12:08;266.60;;;104.97;;
4744;SDS011;2386;42.138;24.746;2023-02-28T08:14:35;259.77;;;103.93;;
4744;SDS011;2386;42.138;24.746;2023-02-28T08:17:01;258.77;;;100.97;;
4744;SDS011;2386;42.138;24.746;2023-02-28T08:19:27;274.10;;;106.17;;
4744;SDS011;2386;42.138;24.746;2023-02-28T08:21:53;265.33;;;101.67;;
4744;SDS011;2386;42.138;24.746;2023-02-28T08:24:19;257.60;;;100.50;;
4744;SDS011;2386;42.138;24.746;2023-02-28T08:26:44;253.43;;;96.53;;
4744;SDS011;2386;42.138;24.746;2023-02-28T08:29:10;251.87;;;97.57;;
4744;SDS011;2386;42.138;24.746;2023-02-28T08:31:35;269.63;;;103.83;;
4744;SDS011;2386;42.138;24.746;2023-02-28T08:34:11;263.90;;;100.87;;
4744;SDS011;2386;42.138;24.746;2023-02-28T08:36:39;273.80;;;102.47;;
4744;SDS011;2386;42.138;24.746;2023-02-28T08:39:04;258.10;;;99.13;;
4744;SDS011;2386;42.138;24.746;2023-02-28T08:41:30;249.43;;;101.27;;
4744;SDS011;2386;42.138;24.746;2023-02-28T08:43:56;286.50;;;106.17;;
4744;SDS011;2386;42.138;24.746;2023-02-28T08:46:23;263.17;;;104.87;;
4744;SDS011;2386;42.138;24.746;2023-02-28T08:48:55;267.27;;;106.97;;
4744;SDS011;2386;42.138;24.746;2023-02-28T08:51:25;279.73;;;111.50;;
4744;SDS011;2386;42.138;24.746;2023-02-28T08:53:54;284.33;;;111.87;;
4744;SDS011;2386;42.138;24.746;2023-02-28T08:56:22;272.90;;;108.73;;
4744;SDS011;2386;42.138;24.746;2023-02-28T08:58:48;282.20;;;114.60;;
4744;SDS011;2386;42.138;24.746;2023-02-28T09:01:18;312.00;;;121.77;;
4744;SDS011;2386;42.138;24.746;2023-02-28T09:03:45;276.10;;;112.37;;
4744;SDS011;2386;42.138;24.746;2023-02-28T09:06:13;267.13;;;112.57;;
4744;SDS011;2386;42.138;24.746;2023-02-28T09:08:39;276.00;;;114.33;;
4744;SDS011;2386;42.138;24.746;2023-02-28T09:11:05;293.10;;;119.13;;
4744;SDS011;2386;42.138;24.746;2023-02-28T09:13:32;284.13;;;113.77;;
4744;SDS011;2386;42.138;24.746;2023-02-28T09:15:58;300.83;;;121.60;;
4744;SDS011;2386;42.138;24.746;2023-02-28T09:18:25;276.40;;;116.57;;
4744;SDS011;2386;42.138;24.746;2023-02-28T09:20:57;315.33;;;122.90;;
4744;SDS011;2386;42.138;24.746;2023-02-28T09:23:23;290.83;;;121.33;;
4744;SDS011;2386;42.138;24.746;2023-02-28T09:25:50;264.80;;;111.17;;
4744;SDS011;2386;42.138;24.746;2023-02-28T09:28:17;278.53;;;106.80;;
4744;SDS011;2386;42.138;24.746;2023-02-28T09:30:44;280.73;;;107.70;;
4744;SDS011;2386;42.138;24.746;2023-02-28T09:33:13;277.10;;;109.70;;
4744;SDS011;2386;42.138;24.746;2023-02-28T09:35:39;268.77;;;110.63;;
4744;SDS011;2386;42.138;24.746;2023-02-28T09:38:05;267.53;;;110.50;;
4744;SDS011;2386;42.138;24.746;2023-02-28T09:40:34;286.63;;;108.80;;
4744;SDS011;2386;42.138;24.746;2023-02-28T09:43:22;281.50;;;116.27;;
4744;SDS011;2386;42.138;24.746;2023-02-28T09:48:34;289.87;;;116.27;;
4744;SDS011;2386;42.138;24.746;2023-02-28T09:54:13;291.07;;;118.43;;
4744;SDS011;2386;42.138;24.746;2023-02-28T09:56:44;293.67;;;117.07;;
4744;SDS011;2386;42.138;24.746;2023-02-28T10:07:05;268.57;;;108.03;;
4744;SDS011;2386;42.138;24.746;2023-02-28T10:09:54;284.80;;;112.23;;
4744;SDS011;2386;42.138;24.746;2023-02-28T10:12:23;258.30;;;106.77;;
4744;SDS011;2386;42.138;24.746;2023-02-28T10:14:51;359.30;;;160.00;;
4744;SDS011;2386;42.138;24.746;2023-02-28T10:17:23;313.00;;;129.60;;
4744;SDS011;2386;42.138;24.746;2023-02-28T10:20:07;299.50;;;118.40;;
4744;SDS011;2386;42.138;24.746;2023-02-28T10:25:47;284.73;;;108.50;;
4744;SDS011;2386;42.138;24.746;2023-02-28T10:28:19;281.30;;;106.00;;
4744;SDS011;2386;42.138;24.746;2023-02-28T10:30:51;265.23;;;102.27;;
4744;SDS011;2386;42.138;24.746;2023-02-28T10:33:20;305.90;;;116.43;;
4744;SDS011;2386;42.138;24.746;2023-02-28T10:35:54;265.03;;;104.80;;
4744;SDS011;2386;42.138;24.746;2023-02-28T10:38:43;276.47;;;106.30;;
4744;SDS011;2386;42.138;24.746;2023-02-28T10:41:08;267.23;;;103.27;;
4744;SDS011;2386;42.138;24.746;2023-02-28T10:44:18;268.63;;;103.87;;
4744;SDS011;2386;42.138;24.746;2023-02-28T10:46:46;276.50;;;107.97;;
4744;SDS011;2386;42.138;24.746;2023-02-28T10:49:13;279.33;;;110.17;;
4744;SDS011;2386;42.138;24.746;2023-02-28T10:51:42;276.87;;;108.97;;
4744;SDS011;2386;42.138;24.746;2023-02-28T10:54:14;287.40;;;107.40;;
4744;SDS011;2386;42.138;24.746;2023-02-28T10:56:42;281.33;;;107.93;;
4744;SDS011;2386;42.138;24.746;2023-02-28T11:01:37;289.77;;;112.13;;
4744;SDS011;2386;42.138;24.746;2023-02-28T11:06:58;259.83;;;105.67;;
4744;SDS011;2386;42.138;24.746;2023-02-28T11:09:30;271.23;;;106.53;;
4744;SDS011;2386;42.138;24.746;2023-02-28T11:12:04;287.53;;;111.07;;
4744;SDS011;2386;42.138;24.746;2023-02-28T11:14:47;283.53;;;112.20;;
4744;SDS011;2386;42.138;24.746;2023-02-28T11:17:22;287.23;;;107.83;;
4744;SDS011;2386;42.138;24.746;2023-02-28T11:19:54;283.73;;;112.23;;
4744;SDS011;2386;42.138;24.746;2023-02-28T11:22:23;272.87;;;109.13;;
4744;SDS011;2386;42.138;24.746;2023-02-28T11:24:53;270.63;;;109.43;;
4744;SDS011;2386;42.138;24.746;2023-02-28T11:29:50;280.23;;;108.33;;
4744;SDS011;2386;42.138;24.746;2023-02-28T11:32:18;284.63;;;110.33;;
4744;SDS011;2386;42.138;24.746;2023-02-28T11:34:46;253.90;;;104.67;;
4744;SDS011;2386;42.138;24.746;2023-02-28T11:37:26;271.63;;;114.50;;
4744;SDS011;2386;42.138;24.746;2023-02-28T11:39:53;278.10;;;106.27;;
4744;SDS011;2386;42.138;24.746;2023-02-28T11:42:23;282.67;;;104.07;;
4744;SDS011;2386;42.138;24.746;2023-02-28T11:55:24;276.37;;;109.87;;
4744;SDS011;2386;42.138;24.746;2023-02-28T11:57:56;295.30;;;114.57;;
4744;SDS011;2386;42.138;24.746;2023-02-28T12:00:55;282.20;;;107.50;;
4744;SDS011;2386;42.138;24.746;2023-02-28T12:06:24;289.00;;;104.37;;
4744;SDS011;2386;42.138;24.746;2023-02-28T12:17:22;225.73;;;97.03;;
4744;SDS011;2386;42.138;24.746;2023-02-28T12:27:37;258.80;;;108.07;;
4744;SDS011;2386;42.138;24.746;2023-02-28T12:32:50;245.97;;;104.43;;
4744;SDS011;2386;42.138;24.746;2023-02-28T12:35:41;265.93;;;112.33;;
4744;SDS011;2386;42.138;24.746;2023-02-28T12:38:16;260.00;;;109.20;;
4744;SDS011;2386;42.138;24.746;2023-02-28T12:40:47;261.33;;;109.87;;
4744;SDS011;2386;42.138;24.746;2023-02-28T12:43:17;260.17;;;108.63;;
4744;SDS011;2386;42.138;24.746;2023-02-28T12:48:27;256.50;;;108.00;;
4744;SDS011;2386;42.138;24.746;2023-02-28T12:51:15;262.30;;;106.00;;
4744;SDS011;2386;42.138;24.746;2023-02-28T12:54:04;271.83;;;111.20;;
4744;SDS011;2386;42.138;24.746;2023-02-28T13:04:45;277.57;;;110.20;;
4744;SDS011;2386;42.138;24.746;2023-02-28T13:10:37;257.13;;;109.37;;
4744;SDS011;2386;42.138;24.746;2023-02-28T13:13:05;259.43;;;103.07;;
4744;SDS011;2386;42.138;24.746;2023-02-28T13:15:30;256.20;;;106.57;;
4744;SDS011;2386;42.138;24.746;2023-02-28T13:18:00;261.13;;;105.63;;
4744;SDS011;2386;42.138;24.746;2023-02-28T13:20:27;274.00;;;115.70;;
4744;SDS011;2386;42.138;24.746;2023-02-28T13:22:57;257.60;;;107.90;;
4744;SDS011;2386;42.138;24.746;2023-02-28T13:27:51;253.53;;;103.43;;
4744;SDS011;2386;42.138;24.746;2023-02-28T13:33:23;238.93;;;97.20;;
4744;SDS011;2386;42.138;24.746;2023-02-28T13:36:06;248.87;;;99.43;;
4744;SDS011;2386;42.138;24.746;2023-02-28T13:51:50;233.30;;;95.37;;
4744;SDS011;2386;42.138;24.746;2023-02-28T13:57:49;243.67;;;101.13;;
4744;SDS011;2386;42.138;24.746;2023-02-28T14:00:23;269.40;;;106.20;;
4744;SDS011;2386;42.138;24.746;2023-02-28T14:05:34;250.13;;;99.47;;
4744;SDS011;2386;42.138;24.746;2023-02-28T14:10:49;253.43;;;100.63;;
4744;SDS011;2386;42.138;24.746;2023-02-28T14:15:56;239.63;;;100.27;;
4744;SDS011;2386;42.138;24.746;2023-02-28T14:18:34;241.67;;;100.37;;
4744;SDS011;2386;42.138;24.746;2023-02-28T14:29:37;235.63;;;93.47;;
4744;SDS011;2386;42.138;24.746;2023-02-28T14:34:53;246.70;;;97.43;;
4744;SDS011;2386;42.138;24.746;2023-02-28T14:37:32;233.03;;;95.37;;
4744;SDS011;2386;42.138;24.746;2023-02-28T14:40:02;223.90;;;92.17;;
4744;SDS011;2386;42.138;24.746;2023-02-28T14:42:31;224.67;;;92.83;;
4744;SDS011;2386;42.138;24.746;2023-02-28T14:45:00;218.70;;;90.30;;
4744;SDS011;2386;42.138;24.746;2023-02-28T14:47:28;225.37;;;92.57;;
4744;SDS011;2386;42.138;24.746;2023-02-28T14:49:56;215.07;;;87.67;;
4744;SDS011;2386;42.138;24.746;2023-02-28T14:52:23;243.37;;;96.33;;
4744;SDS011;2386;42.138;24.746;2023-02-28T14:54:53;221.63;;;89.87;;
4744;SDS011;2386;42.138;24.746;2023-02-28T15:01:05;226.87;;;90.90;;
4744;SDS011;2386;42.138;24.746;2023-02-28T15:03:32;236.77;;;91.97;;
4744;SDS011;2386;42.138;24.746;2023-02-28T15:06:13;193.63;;;85.50;;
4744;SDS011;2386;42.138;24.746;2023-02-28T15:08:41;211.33;;;90.60;;
4744;SDS011;2386;42.138;24.746;2023-02-28T15:11:13;233.77;;;97.27;;
4744;SDS011;2386;42.138;24.746;2023-02-28T15:13:45;201.10;;;85.17;;
4744;SDS011;2386;42.138;24.746;2023-02-28T15:21:28;209.13;;;86.10;;
4744;SDS011;2386;42.138;24.746;2023-02-28T15:23:59;225.17;;;89.07;;
4744;SDS011;2386;42.138;24.746;2023-02-28T15:26:53;235.90;;;97.10;;
4744;SDS011;2386;42.138;24.746;2023-02-28T15:29:23;211.20;;;89.80;;
4744;SDS011;2386;42.138;24.746;2023-02-28T15:31:57;215.47;;;90.77;;
4744;SDS011;2386;42.138;24.746;2023-02-28T15:34:36;192.47;;;83.30;;
4744;SDS011;2386;42.138;24.746;2023-02-28T15:37:25;195.57;;;86.67;;
4744;SDS011;2386;42.138;24.746;2023-02-28T15:39:58;182.57;;;81.90;;
4744;SDS011;2386;42.138;24.746;2023-02-28T15:42:38;196.30;;;86.07;;
4744;SDS011;2386;42.138;24.746;2023-02-28T15:45:04;192.37;;;84.70;;
4744;SDS011;2386;42.138;24.746;2023-02-28T15:47:29;229.57;;;90.30;;
4744;SDS011;2386;42.138;24.746;2023-02-28T15:49:57;218.53;;;89.43;;
4744;SDS011;2386;42.138;24.746;2023-02-28T15:52:45;210.13;;;89.23;;
4744;SDS011;2386;42.138;24.746;2023-02-28T15:57:51;203.13;;;89.73;;
4744;SDS011;2386;42.138;24.746;2023-02-28T16:00:24;215.40;;;90.77;;
4744;SDS011;2386;42.138;24.746;2023-02-28T16:02:51;235.73;;;95.60;;
4744;SDS011;2386;42.138;24.746;2023-02-28T16:05:24;246.07;;;99.43;;
4744;SDS011;2386;42.138;24.746;2023-02-28T16:08:14;224.90;;;94.10;;
4744;SDS011;2386;42.138;24.746;2023-02-28T16:10:40;306.83;;;140.93;;
4744;SDS011;2386;42.138;24.746;2023-02-28T16:13:05;222.43;;;92.93;;
4744;SDS011;2386;42.138;24.746;2023-02-28T16:15:34;207.03;;;85.27;;
4744;SDS011;2386;42.138;24.746;2023-02-28T16:18:07;214.90;;;87.00;;
4744;SDS011;2386;42.138;24.746;2023-02-28T16:20:35;230.97;;;89.97;;
4744;SDS011;2386;42.138;24.746;2023-02-28T16:23:00;221.07;;;91.27;;
4744;SDS011;2386;42.138;24.746;2023-02-28T16:25:34;202.17;;;85.10;;
4744;SDS011;2386;42.138;24.746;2023-02-28T16:28:01;212.53;;;88.73;;
4744;SDS011;2386;42.138;24.746;2023-02-28T16:30:28;218.77;;;92.40;;
4744;SDS011;2386;42.138;24.746;2023-02-28T16:32:57;223.13;;;89.73;;
4744;SDS011;2386;42.138;24.746;2023-02-28T16:35:23;229.70;;;94.97;;
4744;SDS011;2386;42.138;24.746;2023-02-28T16:37:50;211.60;;;85.00;;
4744;SDS011;2386;42.138;24.746;2023-02-28T16:40:20;200.33;;;83.47;;
4744;SDS011;2386;42.138;24.746;2023-02-28T16:42:51;193.37;;;80.50;;
4744;SDS011;2386;42.138;24.746;2023-02-28T16:45:22;222.37;;;90.03;;
4744;SDS011;2386;42.138;24.746;2023-02-28T16:47:50;209.83;;;82.00;;
4744;SDS011;2386;42.138;24.746;2023-02-28T16:50:17;217.67;;;90.13;;
4744;SDS011;2386;42.138;24.746;2023-02-28T16:52:44;216.00;;;89.20;;
4744;SDS011;2386;42.138;24.746;2023-02-28T16:55:10;217.87;;;88.13;;
4744;SDS011;2386;42.138;24.746;2023-02-28T16:57:36;216.47;;;87.40;;
4744;SDS011;2386;42.138;24.746;2023-02-28T17:00:02;247.57;;;93.00;;
4744;SDS011;2386;42.138;24.746;2023-02-28T17:02:29;221.63;;;90.27;;